sensor_id;sensor_type;location;lat;lon;timestamp;temperature;humidity
62862;DHT22;48953;53.110;5.592;2022-07-01T00:00:28;14.90;99.90
62862;DHT22;48953;53.110;5.592;2022-07-01T00:02:53;14.90;99.90
62862;DHT22;48953;53.110;5.592;2022-07-01T00:05:19;14.90;99.90
62862;DHT22;48953;53.110;5.592;2022-07-01T00:07:46;14.90;99.90
62862;DHT22;48953;53.110;5.592;2022-07-01T00:10:12;15.00;99.90
62862;DHT22;48953;53.110;5.592;2022-07-01T00:12:37;15.00;99.90
62862;DHT22;48953;53.110;5.592;2022-07-01T00:15:03;15.00;99.90
62862;DHT22;48953;53.110;5.592;2022-07-01T00:17:29;14.90;99.90
62862;DHT22;48953;53.110;5.592;2022-07-01T00:19:55;14.90;99.90
62862;DHT22;48953;53.110;5.592;2022-07-01T00:22:21;14.90;99.90
62862;DHT22;48953;53.110;5.592;2022-07-01T00:24:46;14.90;99.90
62862;DHT22;48953;53.110;5.592;2022-07-01T00:27:14;14.90;99.90
62862;DHT22;48953;53.110;5.592;2022-07-01T00:29:40;14.90;99.90
62862;DHT22;48953;53.110;5.592;2022-07-01T00:32:06;14.80;99.90
62862;DHT22;48953;53.110;5.592;2022-07-01T00:34:32;14.80;99.90
62862;DHT22;48953;53.110;5.592;2022-07-01T00:36:58;14.80;99.90
62862;DHT22;48953;53.110;5.592;2022-07-01T00:39:24;14.80;99.90
62862;DHT22;48953;53.110;5.592;2022-07-01T00:41:50;14.80;99.90
62862;DHT22;48953;53.110;5.592;2022-07-01T00:44:17;14.80;99.90
62862;DHT22;48953;53.110;5.592;2022-07-01T00:46:43;14.90;99.90
62862;DHT22;48953;53.110;5.592;2022-07-01T00:49:09;14.80;99.90
62862;DHT22;48953;53.110;5.592;2022-07-01T00:51:35;14.80;99.90
62862;DHT22;48953;53.110;5.592;2022-07-01T00:54:01;14.80;99.90
62862;DHT22;48953;53.110;5.592;2022-07-01T00:56:27;14.90;99.90
62862;DHT22;48953;53.110;5.592;2022-07-01T00:58:53;14.90;99.90
62862;DHT22;48953;53.110;5.592;2022-07-01T01:01:18;14.90;99.90
62862;DHT22;48953;53.110;5.592;2022-07-01T01:03:46;14.80;99.90
62862;DHT22;48953;53.110;5.592;2022-07-01T01:06:12;14.80;99.90
62862;DHT22;48953;53.110;5.592;2022-07-01T01:08:37;14.80;99.90
62862;DHT22;48953;53.110;5.592;2022-07-01T01:11:04;14.80;99.90
62862;DHT22;48953;53.110;5.592;2022-07-01T01:13:30;14.80;99.90
62862;DHT22;48953;53.110;5.592;2022-07-01T01:15:56;14.80;99.90
62862;DHT22;48953;53.110;5.592;2022-07-01T01:18:21;14.80;99.90
62862;DHT22;48953;53.110;5.592;2022-07-01T01:20:47;14.80;99.90
62862;DHT22;48953;53.110;5.592;2022-07-01T01:23:12;14.90;99.90
62862;DHT22;48953;53.110;5.592;2022-07-01T01:25:38;14.90;99.90
62862;DHT22;48953;53.110;5.592;2022-07-01T01:28:04;14.90;99.90
62862;DHT22;48953;53.110;5.592;2022-07-01T01:30:30;14.90;99.90
62862;DHT22;48953;53.110;5.592;2022-07-01T01:32:55;14.90;99.90
62862;DHT22;48953;53.110;5.592;2022-07-01T01:35:21;14.80;99.90
62862;DHT22;48953;53.110;5.592;2022-07-01T01:37:47;14.70;99.90
62862;DHT22;48953;53.110;5.592;2022-07-01T01:40:14;14.70;99.90
62862;DHT22;48953;53.110;5.592;2022-07-01T01:42:41;14.70;99.90
62862;DHT22;48953;53.110;5.592;2022-07-01T01:45:07;14.70;99.90
62862;DHT22;48953;53.110;5.592;2022-07-01T01:47:33;14.70;99.90
62862;DHT22;48953;53.110;5.592;2022-07-01T01:49:59;14.70;99.90
62862;DHT22;48953;53.110;5.592;2022-07-01T01:52:24;14.60;99.90
62862;DHT22;48953;53.110;5.592;2022-07-01T01:54:50;14.60;99.90
62862;DHT22;48953;53.110;5.592;2022-07-01T01:57:15;14.50;99.90
62862;DHT22;48953;53.110;5.592;2022-07-01T01:59:41;14.50;80.00
62862;DHT22;48953;53.110;5.592;2022-07-01T02:02:07;14.40;14.60
62862;DHT22;48953;53.110;5.592;2022-07-01T02:04:33;14.30;1.00
62862;DHT22;48953;53.110;5.592;2022-07-01T02:06:59;14.30;1.00
62862;DHT22;48953;53.110;5.592;2022-07-01T02:09:25;14.20;1.00
62862;DHT22;48953;53.110;5.592;2022-07-01T02:11:50;14.20;1.00
62862;DHT22;48953;53.110;5.592;2022-07-01T02:14:16;14.20;1.00
62862;DHT22;48953;53.110;5.592;2022-07-01T02:16:41;14.20;1.00
62862;DHT22;48953;53.110;5.592;2022-07-01T02:19:07;14.20;1.00
62862;DHT22;48953;53.110;5.592;2022-07-01T02:21:32;14.30;1.00
62862;DHT22;48953;53.110;5.592;2022-07-01T02:23:58;14.30;1.00
62862;DHT22;48953;53.110;5.592;2022-07-01T02:26:23;14.30;1.00
62862;DHT22;48953;53.110;5.592;2022-07-01T02:28:49;14.20;99.90
62862;DHT22;48953;53.110;5.592;2022-07-01T02:31:15;14.30;99.90
62862;DHT22;48953;53.110;5.592;2022-07-01T02:33:40;14.30;99.90
62862;DHT22;48953;53.110;5.592;2022-07-01T02:36:06;14.30;99.90
62862;DHT22;48953;53.110;5.592;2022-07-01T02:38:32;14.30;99.90
62862;DHT22;48953;53.110;5.592;2022-07-01T02:40:57;14.10;99.90
62862;DHT22;48953;53.110;5.592;2022-07-01T02:43:24;14.00;99.90
62862;DHT22;48953;53.110;5.592;2022-07-01T02:45:49;13.90;99.90
62862;DHT22;48953;53.110;5.592;2022-07-01T02:48:15;13.90;99.90
62862;DHT22;48953;53.110;5.592;2022-07-01T02:50:40;13.90;99.90
62862;DHT22;48953;53.110;5.592;2022-07-01T02:53:06;13.90;99.90
62862;DHT22;48953;53.110;5.592;2022-07-01T02:55:32;13.80;99.90
62862;DHT22;48953;53.110;5.592;2022-07-01T02:57:58;13.90;99.90
62862;DHT22;48953;53.110;5.592;2022-07-01T03:00:24;13.80;99.90
62862;DHT22;48953;53.110;5.592;2022-07-01T03:02:50;13.80;99.90
62862;DHT22;48953;53.110;5.592;2022-07-01T03:05:16;13.80;99.90
62862;DHT22;48953;53.110;5.592;2022-07-01T03:07:41;13.80;99.90
62862;DHT22;48953;53.110;5.592;2022-07-01T03:10:08;13.70;99.90
62862;DHT22;48953;53.110;5.592;2022-07-01T03:12:34;13.60;99.90
62862;DHT22;48953;53.110;5.592;2022-07-01T03:15:03;13.50;99.90
62862;DHT22;48953;53.110;5.592;2022-07-01T03:17:31;13.40;99.90
62862;DHT22;48953;53.110;5.592;2022-07-01T03:19:58;13.40;99.90
62862;DHT22;48953;53.110;5.592;2022-07-01T03:22:26;13.30;99.90
62862;DHT22;48953;53.110;5.592;2022-07-01T03:24:52;13.30;99.90
62862;DHT22;48953;53.110;5.592;2022-07-01T03:27:19;13.30;99.90
62862;DHT22;48953;53.110;5.592;2022-07-01T03:29:45;13.20;99.90
62862;DHT22;48953;53.110;5.592;2022-07-01T03:32:11;13.20;99.90
62862;DHT22;48953;53.110;5.592;2022-07-01T03:34:37;13.10;99.90
62862;DHT22;48953;53.110;5.592;2022-07-01T03:37:04;13.10;99.90
62862;DHT22;48953;53.110;5.592;2022-07-01T03:39:30;13.10;99.90
62862;DHT22;48953;53.110;5.592;2022-07-01T03:41:55;13.10;99.90
62862;DHT22;48953;53.110;5.592;2022-07-01T03:44:21;13.10;99.90
62862;DHT22;48953;53.110;5.592;2022-07-01T03:46:46;13.10;99.90
62862;DHT22;48953;53.110;5.592;2022-07-01T03:49:12;13.10;99.90
62862;DHT22;48953;53.110;5.592;2022-07-01T03:51:37;13.10;99.90
62862;DHT22;48953;53.110;5.592;2022-07-01T03:54:03;13.10;99.90
62862;DHT22;48953;53.110;5.592;2022-07-01T03:56:47;13.20;99.90
62862;DHT22;48953;53.110;5.592;2022-07-01T03:59:13;13.30;99.90
62862;DHT22;48953;53.110;5.592;2022-07-01T04:01:38;13.30;99.90
62862;DHT22;48953;53.110;5.592;2022-07-01T04:04:04;13.40;99.90
62862;DHT22;48953;53.110;5.592;2022-07-01T04:06:30;13.40;99.90
62862;DHT22;48953;53.110;5.592;2022-07-01T04:08:56;13.40;99.90
62862;DHT22;48953;53.110;5.592;2022-07-01T04:11:21;13.50;99.90
62862;DHT22;48953;53.110;5.592;2022-07-01T04:13:47;13.60;99.90
62862;DHT22;48953;53.110;5.592;2022-07-01T04:16:17;13.60;99.90
62862;DHT22;48953;53.110;5.592;2022-07-01T04:18:42;13.60;99.90
62862;DHT22;48953;53.110;5.592;2022-07-01T04:21:08;13.60;99.90
62862;DHT22;48953;53.110;5.592;2022-07-01T04:23:53;13.70;99.90
62862;DHT22;48953;53.110;5.592;2022-07-01T04:26:18;13.70;99.90
62862;DHT22;48953;53.110;5.592;2022-07-01T04:28:44;13.70;99.90
62862;DHT22;48953;53.110;5.592;2022-07-01T04:31:10;13.70;99.90
62862;DHT22;48953;53.110;5.592;2022-07-01T04:33:35;13.70;99.90
62862;DHT22;48953;53.110;5.592;2022-07-01T04:36:01;13.80;99.90
62862;DHT22;48953;53.110;5.592;2022-07-01T04:38:27;13.90;99.90
62862;DHT22;48953;53.110;5.592;2022-07-01T04:40:52;13.90;99.90
62862;DHT22;48953;53.110;5.592;2022-07-01T04:43:36;13.90;99.90
62862;DHT22;48953;53.110;5.592;2022-07-01T04:46:02;14.10;99.90
62862;DHT22;48953;53.110;5.592;2022-07-01T04:48:27;14.20;99.90
62862;DHT22;48953;53.110;5.592;2022-07-01T04:50:53;14.30;99.90
62862;DHT22;48953;53.110;5.592;2022-07-01T04:53:18;14.30;99.90
62862;DHT22;48953;53.110;5.592;2022-07-01T04:55:44;14.40;99.90
62862;DHT22;48953;53.110;5.592;2022-07-01T04:58:10;14.50;99.90
62862;DHT22;48953;53.110;5.592;2022-07-01T05:00:35;14.60;99.90
62862;DHT22;48953;53.110;5.592;2022-07-01T05:03:01;14.70;99.90
62862;DHT22;48953;53.110;5.592;2022-07-01T05:05:26;14.90;99.90
62862;DHT22;48953;53.110;5.592;2022-07-01T05:07:52;15.20;99.90
62862;DHT22;48953;53.110;5.592;2022-07-01T05:10:17;15.40;99.90
62862;DHT22;48953;53.110;5.592;2022-07-01T05:12:43;15.60;99.90
62862;DHT22;48953;53.110;5.592;2022-07-01T05:15:09;16.00;99.90
62862;DHT22;48953;53.110;5.592;2022-07-01T05:17:35;16.10;99.90
62862;DHT22;48953;53.110;5.592;2022-07-01T05:20:19;16.10;99.90
62862;DHT22;48953;53.110;5.592;2022-07-01T05:23:03;16.20;99.90
62862;DHT22;48953;53.110;5.592;2022-07-01T05:25:29;16.50;99.90
62862;DHT22;48953;53.110;5.592;2022-07-01T05:27:54;16.60;99.90
62862;DHT22;48953;53.110;5.592;2022-07-01T05:30:21;16.60;99.90
62862;DHT22;48953;53.110;5.592;2022-07-01T05:32:47;16.80;99.90
62862;DHT22;48953;53.110;5.592;2022-07-01T05:35:12;17.00;99.90
62862;DHT22;48953;53.110;5.592;2022-07-01T05:37:40;17.20;99.90
62862;DHT22;48953;53.110;5.592;2022-07-01T05:40:06;17.30;99.90
62862;DHT22;48953;53.110;5.592;2022-07-01T05:42:31;17.20;99.80
62862;DHT22;48953;53.110;5.592;2022-07-01T05:44:57;17.00;99.90
62862;DHT22;48953;53.110;5.592;2022-07-01T05:47:22;16.80;99.90
62862;DHT22;48953;53.110;5.592;2022-07-01T05:49:48;16.70;99.90
62862;DHT22;48953;53.110;5.592;2022-07-01T05:52:14;16.60;99.90
62862;DHT22;48953;53.110;5.592;2022-07-01T05:54:39;16.50;99.90
62862;DHT22;48953;53.110;5.592;2022-07-01T05:57:05;16.50;99.90
62862;DHT22;48953;53.110;5.592;2022-07-01T05:59:30;16.50;99.90
62862;DHT22;48953;53.110;5.592;2022-07-01T06:01:56;16.50;99.90
62862;DHT22;48953;53.110;5.592;2022-07-01T06:04:21;16.50;99.90
62862;DHT22;48953;53.110;5.592;2022-07-01T06:06:47;16.60;99.90
62862;DHT22;48953;53.110;5.592;2022-07-01T06:09:13;16.70;99.90
62862;DHT22;48953;53.110;5.592;2022-07-01T06:11:38;16.70;99.90
62862;DHT22;48953;53.110;5.592;2022-07-01T06:14:04;16.60;99.90
62862;DHT22;48953;53.110;5.592;2022-07-01T06:16:30;16.70;99.90
62862;DHT22;48953;53.110;5.592;2022-07-01T06:18:55;16.70;99.90
62862;DHT22;48953;53.110;5.592;2022-07-01T06:21:21;16.80;99.90
62862;DHT22;48953;53.110;5.592;2022-07-01T06:23:46;16.90;99.90
62862;DHT22;48953;53.110;5.592;2022-07-01T06:26:12;16.80;99.90
62862;DHT22;48953;53.110;5.592;2022-07-01T06:28:37;16.90;99.90
62862;DHT22;48953;53.110;5.592;2022-07-01T06:31:03;16.80;99.90
62862;DHT22;48953;53.110;5.592;2022-07-01T06:33:29;16.80;60.30
62862;DHT22;48953;53.110;5.592;2022-07-01T06:35:56;16.90;99.90
62862;DHT22;48953;53.110;5.592;2022-07-01T06:38:23;16.90;99.90
62862;DHT22;48953;53.110;5.592;2022-07-01T06:40:48;16.90;99.90
62862;DHT22;48953;53.110;5.592;2022-07-01T06:43:34;17.10;96.30
62862;DHT22;48953;53.110;5.592;2022-07-01T06:46:01;17.20;95.10
62862;DHT22;48953;53.110;5.592;2022-07-01T06:48:27;17.30;92.70
62862;DHT22;48953;53.110;5.592;2022-07-01T06:50:52;17.50;58.40
62862;DHT22;48953;53.110;5.592;2022-07-01T06:53:18;17.50;69.70
62862;DHT22;48953;53.110;5.592;2022-07-01T06:55:43;17.60;55.00
62862;DHT22;48953;53.110;5.592;2022-07-01T06:58:09;17.60;52.60
62862;DHT22;48953;53.110;5.592;2022-07-01T07:00:36;17.90;33.70
62862;DHT22;48953;53.110;5.592;2022-07-01T07:03:01;18.10;1.00
62862;DHT22;48953;53.110;5.592;2022-07-01T07:05:27;18.40;1.00
62862;DHT22;48953;53.110;5.592;2022-07-01T07:07:56;18.60;1.00
62862;DHT22;48953;53.110;5.592;2022-07-01T07:10:22;19.10;1.00
62862;DHT22;48953;53.110;5.592;2022-07-01T07:12:48;19.20;1.00
62862;DHT22;48953;53.110;5.592;2022-07-01T07:15:13;19.00;1.00
62862;DHT22;48953;53.110;5.592;2022-07-01T07:17:39;19.00;1.00
62862;DHT22;48953;53.110;5.592;2022-07-01T07:20:05;18.90;1.00
62862;DHT22;48953;53.110;5.592;2022-07-01T07:22:30;19.30;1.00
62862;DHT22;48953;53.110;5.592;2022-07-01T07:24:56;19.50;1.00
62862;DHT22;48953;53.110;5.592;2022-07-01T07:27:21;20.70;1.00
62862;DHT22;48953;53.110;5.592;2022-07-01T07:29:47;20.50;1.00
62862;DHT22;48953;53.110;5.592;2022-07-01T07:32:12;20.60;1.00
62862;DHT22;48953;53.110;5.592;2022-07-01T07:34:38;20.90;1.00
62862;DHT22;48953;53.110;5.592;2022-07-01T07:37:04;21.30;1.00
62862;DHT22;48953;53.110;5.592;2022-07-01T07:39:30;21.40;1.00
62862;DHT22;48953;53.110;5.592;2022-07-01T07:41:56;21.70;99.90
62862;DHT22;48953;53.110;5.592;2022-07-01T07:44:21;22.20;99.90
62862;DHT22;48953;53.110;5.592;2022-07-01T07:46:47;22.10;99.90
62862;DHT22;48953;53.110;5.592;2022-07-01T07:49:12;22.50;99.90
62862;DHT22;48953;53.110;5.592;2022-07-01T07:51:38;24.00;99.90
62862;DHT22;48953;53.110;5.592;2022-07-01T07:54:04;25.90;99.90
62862;DHT22;48953;53.110;5.592;2022-07-01T07:56:30;27.40;99.90
62862;DHT22;48953;53.110;5.592;2022-07-01T07:58:56;26.30;99.90
62862;DHT22;48953;53.110;5.592;2022-07-01T08:01:21;24.90;99.90
62862;DHT22;48953;53.110;5.592;2022-07-01T08:03:47;24.10;99.90
62862;DHT22;48953;53.110;5.592;2022-07-01T08:06:12;23.60;99.90
62862;DHT22;48953;53.110;5.592;2022-07-01T08:08:38;23.30;99.90
62862;DHT22;48953;53.110;5.592;2022-07-01T08:11:03;23.70;99.90
62862;DHT22;48953;53.110;5.592;2022-07-01T08:13:29;24.20;99.90
62862;DHT22;48953;53.110;5.592;2022-07-01T08:15:56;23.60;99.90
62862;DHT22;48953;53.110;5.592;2022-07-01T08:18:22;25.80;99.90
62862;DHT22;48953;53.110;5.592;2022-07-01T08:20:47;26.30;99.90
62862;DHT22;48953;53.110;5.592;2022-07-01T08:23:16;25.50;99.90
62862;DHT22;48953;53.110;5.592;2022-07-01T08:25:41;26.00;99.90
62862;DHT22;48953;53.110;5.592;2022-07-01T08:28:08;26.60;99.90
62862;DHT22;48953;53.110;5.592;2022-07-01T08:30:34;31.80;99.90
62862;DHT22;48953;53.110;5.592;2022-07-01T08:32:59;29.00;99.90
62862;DHT22;48953;53.110;5.592;2022-07-01T08:35:25;26.60;99.90
62862;DHT22;48953;53.110;5.592;2022-07-01T08:37:51;25.00;99.90
62862;DHT22;48953;53.110;5.592;2022-07-01T08:40:18;23.70;99.90
62862;DHT22;48953;53.110;5.592;2022-07-01T08:42:44;23.30;99.90
62862;DHT22;48953;53.110;5.592;2022-07-01T08:45:09;23.40;99.90
62862;DHT22;48953;53.110;5.592;2022-07-01T08:47:49;29.20;99.90
62862;DHT22;48953;53.110;5.592;2022-07-01T08:50:15;32.90;99.90
62862;DHT22;48953;53.110;5.592;2022-07-01T08:52:40;34.50;99.90
62862;DHT22;48953;53.110;5.592;2022-07-01T08:55:06;36.00;99.90
62862;DHT22;48953;53.110;5.592;2022-07-01T08:57:32;36.30;99.90
62862;DHT22;48953;53.110;5.592;2022-07-01T09:00:03;34.80;99.90
62862;DHT22;48953;53.110;5.592;2022-07-01T09:02:56;36.00;99.90
62862;DHT22;48953;53.110;5.592;2022-07-01T09:05:23;37.20;99.90
62862;DHT22;48953;53.110;5.592;2022-07-01T09:07:54;37.10;99.90
62862;DHT22;48953;53.110;5.592;2022-07-01T09:10:21;36.40;99.90
62862;DHT22;48953;53.110;5.592;2022-07-01T09:12:47;32.80;99.90
62862;DHT22;48953;53.110;5.592;2022-07-01T09:17:46;29.30;99.90
62862;DHT22;48953;53.110;5.592;2022-07-01T09:20:25;28.70;99.90
62862;DHT22;48953;53.110;5.592;2022-07-01T09:30:34;25.40;99.90
62862;DHT22;48953;53.110;5.592;2022-07-01T09:33:10;24.70;99.90
62862;DHT22;48953;53.110;5.592;2022-07-01T09:35:37;24.40;99.90
62862;DHT22;48953;53.110;5.592;2022-07-01T09:38:03;24.30;99.90
62862;DHT22;48953;53.110;5.592;2022-07-01T09:40:56;24.40;99.90
62862;DHT22;48953;53.110;5.592;2022-07-01T09:43:27;23.90;99.90
62862;DHT22;48953;53.110;5.592;2022-07-01T09:48:25;23.40;99.90
62862;DHT22;48953;53.110;5.592;2022-07-01T09:50:51;23.20;99.90
62862;DHT22;48953;53.110;5.592;2022-07-01T09:53:17;22.90;99.90
62862;DHT22;48953;53.110;5.592;2022-07-01T09:55:43;22.60;99.90
62862;DHT22;48953;53.110;5.592;2022-07-01T09:58:09;22.20;99.90
62862;DHT22;48953;53.110;5.592;2022-07-01T10:00:36;23.90;99.90
62862;DHT22;48953;53.110;5.592;2022-07-01T10:03:05;22.90;99.90
62862;DHT22;48953;53.110;5.592;2022-07-01T10:05:36;22.70;99.90
62862;DHT22;48953;53.110;5.592;2022-07-01T10:11:25;22.80;99.90
62862;DHT22;48953;53.110;5.592;2022-07-01T10:13:57;22.90;99.90
62862;DHT22;48953;53.110;5.592;2022-07-01T10:16:24;23.20;99.90
62862;DHT22;48953;53.110;5.592;2022-07-01T10:18:51;23.90;99.90
62862;DHT22;48953;53.110;5.592;2022-07-01T10:21:30;24.20;99.90
62862;DHT22;48953;53.110;5.592;2022-07-01T10:24:13;28.10;99.90
62862;DHT22;48953;53.110;5.592;2022-07-01T10:26:39;30.80;99.90
62862;DHT22;48953;53.110;5.592;2022-07-01T10:31:54;34.80;99.90
62862;DHT22;48953;53.110;5.592;2022-07-01T10:34:25;33.80;99.90
62862;DHT22;48953;53.110;5.592;2022-07-01T10:37:04;30.00;99.90
62862;DHT22;48953;53.110;5.592;2022-07-01T10:40:10;31.30;99.90
62862;DHT22;48953;53.110;5.592;2022-07-01T10:42:58;30.90;99.90
62862;DHT22;48953;53.110;5.592;2022-07-01T10:45:24;28.50;99.90
62862;DHT22;48953;53.110;5.592;2022-07-01T10:48:20;27.80;99.90
62862;DHT22;48953;53.110;5.592;2022-07-01T10:50:46;27.80;99.90
62862;DHT22;48953;53.110;5.592;2022-07-01T10:53:16;28.70;99.90
62862;DHT22;48953;53.110;5.592;2022-07-01T10:55:52;32.20;99.90
62862;DHT22;48953;53.110;5.592;2022-07-01T10:58:19;30.40;99.90
62862;DHT22;48953;53.110;5.592;2022-07-01T11:01:00;27.60;99.90
62862;DHT22;48953;53.110;5.592;2022-07-01T11:03:25;27.30;99.90
62862;DHT22;48953;53.110;5.592;2022-07-01T11:05:53;26.60;99.90
62862;DHT22;48953;53.110;5.592;2022-07-01T11:08:19;27.50;99.90
62862;DHT22;48953;53.110;5.592;2022-07-01T11:10:50;27.70;99.90
62862;DHT22;48953;53.110;5.592;2022-07-01T11:13:16;30.10;99.90
62862;DHT22;48953;53.110;5.592;2022-07-01T11:15:45;28.00;99.90
62862;DHT22;48953;53.110;5.592;2022-07-01T11:18:11;26.90;99.90
62862;DHT22;48953;53.110;5.592;2022-07-01T11:20:37;26.20;99.90
62862;DHT22;48953;53.110;5.592;2022-07-01T11:23:03;28.10;99.90
62862;DHT22;48953;53.110;5.592;2022-07-01T11:25:30;29.60;99.90
62862;DHT22;48953;53.110;5.592;2022-07-01T11:27:55;28.20;99.90
62862;DHT22;48953;53.110;5.592;2022-07-01T11:30:22;26.60;99.90
62862;DHT22;48953;53.110;5.592;2022-07-01T11:32:55;26.30;99.90
62862;DHT22;48953;53.110;5.592;2022-07-01T11:35:29;26.40;99.90
62862;DHT22;48953;53.110;5.592;2022-07-01T11:38:18;26.40;99.90
62862;DHT22;48953;53.110;5.592;2022-07-01T11:41:06;26.10;99.90
62862;DHT22;48953;53.110;5.592;2022-07-01T11:43:39;26.50;99.90
62862;DHT22;48953;53.110;5.592;2022-07-01T11:46:07;26.70;99.90
62862;DHT22;48953;53.110;5.592;2022-07-01T11:48:35;26.80;99.90
62862;DHT22;48953;53.110;5.592;2022-07-01T11:51:06;26.80;99.90
62862;DHT22;48953;53.110;5.592;2022-07-01T11:53:32;26.10;99.90
62862;DHT22;48953;53.110;5.592;2022-07-01T11:55:58;26.50;99.90
62862;DHT22;48953;53.110;5.592;2022-07-01T11:58:23;26.80;99.90
62862;DHT22;48953;53.110;5.592;2022-07-01T12:00:49;26.10;99.90
62862;DHT22;48953;53.110;5.592;2022-07-01T12:03:29;26.00;99.90
62862;DHT22;48953;53.110;5.592;2022-07-01T12:05:56;25.60;99.90
62862;DHT22;48953;53.110;5.592;2022-07-01T12:08:22;25.50;99.90
62862;DHT22;48953;53.110;5.592;2022-07-01T12:10:47;25.80;99.90
62862;DHT22;48953;53.110;5.592;2022-07-01T12:13:23;25.40;99.90
62862;DHT22;48953;53.110;5.592;2022-07-01T12:15:49;25.70;99.90
62862;DHT22;48953;53.110;5.592;2022-07-01T12:18:15;25.80;99.90
62862;DHT22;48953;53.110;5.592;2022-07-01T12:20:48;26.40;99.90
62862;DHT22;48953;53.110;5.592;2022-07-01T12:23:15;25.90;99.90
62862;DHT22;48953;53.110;5.592;2022-07-01T12:25:47;26.20;99.90
62862;DHT22;48953;53.110;5.592;2022-07-01T12:28:28;26.70;99.90
62862;DHT22;48953;53.110;5.592;2022-07-01T12:31:08;26.60;99.90
62862;DHT22;48953;53.110;5.592;2022-07-01T12:33:39;26.40;99.90
62862;DHT22;48953;53.110;5.592;2022-07-01T12:36:06;26.60;99.90
62862;DHT22;48953;53.110;5.592;2022-07-01T12:38:32;26.70;99.90
62862;DHT22;48953;53.110;5.592;2022-07-01T12:40:58;25.80;99.90
62862;DHT22;48953;53.110;5.592;2022-07-01T12:43:31;25.80;99.90
62862;DHT22;48953;53.110;5.592;2022-07-01T12:46:03;26.30;99.90
62862;DHT22;48953;53.110;5.592;2022-07-01T12:48:28;26.30;99.90
62862;DHT22;48953;53.110;5.592;2022-07-01T12:50:56;26.40;99.90
62862;DHT22;48953;53.110;5.592;2022-07-01T12:53:23;25.70;99.90
62862;DHT22;48953;53.110;5.592;2022-07-01T12:55:52;26.20;99.90
62862;DHT22;48953;53.110;5.592;2022-07-01T12:58:21;25.90;99.90
62862;DHT22;48953;53.110;5.592;2022-07-01T13:00:49;26.30;99.90
62862;DHT22;48953;53.110;5.592;2022-07-01T13:03:19;26.40;99.90
62862;DHT22;48953;53.110;5.592;2022-07-01T13:05:44;26.10;99.90
62862;DHT22;48953;53.110;5.592;2022-07-01T13:08:10;26.50;99.90
62862;DHT22;48953;53.110;5.592;2022-07-01T13:10:37;26.70;99.90
62862;DHT22;48953;53.110;5.592;2022-07-01T13:13:03;27.00;99.90
62862;DHT22;48953;53.110;5.592;2022-07-01T13:15:30;26.70;99.90
62862;DHT22;48953;53.110;5.592;2022-07-01T13:17:55;27.00;99.90
62862;DHT22;48953;53.110;5.592;2022-07-01T13:20:21;26.60;99.90
62862;DHT22;48953;53.110;5.592;2022-07-01T13:22:47;26.80;99.90
62862;DHT22;48953;53.110;5.592;2022-07-01T13:25:13;26.80;99.90
62862;DHT22;48953;53.110;5.592;2022-07-01T13:27:39;26.40;99.90
62862;DHT22;48953;53.110;5.592;2022-07-01T13:30:06;25.80;99.90
62862;DHT22;48953;53.110;5.592;2022-07-01T13:32:34;26.10;99.90
62862;DHT22;48953;53.110;5.592;2022-07-01T13:34:59;26.50;99.90
62862;DHT22;48953;53.110;5.592;2022-07-01T13:37:25;26.60;99.90
62862;DHT22;48953;53.110;5.592;2022-07-01T13:39:51;26.20;99.90
62862;DHT22;48953;53.110;5.592;2022-07-01T13:42:16;25.70;99.90
62862;DHT22;48953;53.110;5.592;2022-07-01T13:44:42;26.30;99.90
62862;DHT22;48953;53.110;5.592;2022-07-01T13:47:08;26.50;99.90
62862;DHT22;48953;53.110;5.592;2022-07-01T13:49:36;26.70;99.90
62862;DHT22;48953;53.110;5.592;2022-07-01T13:52:02;26.40;99.90
62862;DHT22;48953;53.110;5.592;2022-07-01T13:54:28;26.50;99.90
62862;DHT22;48953;53.110;5.592;2022-07-01T13:56:53;26.30;99.90
62862;DHT22;48953;53.110;5.592;2022-07-01T13:59:19;26.00;99.90
62862;DHT22;48953;53.110;5.592;2022-07-01T14:01:45;26.20;99.90
62862;DHT22;48953;53.110;5.592;2022-07-01T14:04:10;25.90;99.90
62862;DHT22;48953;53.110;5.592;2022-07-01T14:06:36;25.60;99.90
62862;DHT22;48953;53.110;5.592;2022-07-01T14:09:03;26.20;99.90
62862;DHT22;48953;53.110;5.592;2022-07-01T14:11:28;26.70;99.90
62862;DHT22;48953;53.110;5.592;2022-07-01T14:13:54;26.50;99.90
62862;DHT22;48953;53.110;5.592;2022-07-01T14:16:19;26.10;99.90
62862;DHT22;48953;53.110;5.592;2022-07-01T14:18:45;26.00;99.90
62862;DHT22;48953;53.110;5.592;2022-07-01T14:21:11;26.50;99.90
62862;DHT22;48953;53.110;5.592;2022-07-01T14:23:37;25.50;99.90
62862;DHT22;48953;53.110;5.592;2022-07-01T14:26:03;24.40;99.90
62862;DHT22;48953;53.110;5.592;2022-07-01T14:28:28;24.90;99.90
62862;DHT22;48953;53.110;5.592;2022-07-01T14:30:54;25.10;99.90
62862;DHT22;48953;53.110;5.592;2022-07-01T14:33:20;25.30;99.90
62862;DHT22;48953;53.110;5.592;2022-07-01T14:35:46;25.60;99.90
62862;DHT22;48953;53.110;5.592;2022-07-01T14:38:13;25.50;99.90
62862;DHT22;48953;53.110;5.592;2022-07-01T14:40:40;25.20;99.90
62862;DHT22;48953;53.110;5.592;2022-07-01T14:43:05;25.00;99.90
62862;DHT22;48953;53.110;5.592;2022-07-01T14:45:32;24.80;99.90
62862;DHT22;48953;53.110;5.592;2022-07-01T14:47:57;25.20;99.90
62862;DHT22;48953;53.110;5.592;2022-07-01T14:50:23;25.10;99.90
62862;DHT22;48953;53.110;5.592;2022-07-01T14:52:49;24.90;99.90
62862;DHT22;48953;53.110;5.592;2022-07-01T14:55:15;24.20;99.90
62862;DHT22;48953;53.110;5.592;2022-07-01T14:57:40;24.40;99.90
62862;DHT22;48953;53.110;5.592;2022-07-01T15:00:07;24.50;99.90
62862;DHT22;48953;53.110;5.592;2022-07-01T15:02:33;24.00;99.90
62862;DHT22;48953;53.110;5.592;2022-07-01T15:04:58;24.30;99.90
62862;DHT22;48953;53.110;5.592;2022-07-01T15:07:24;24.00;99.90
62862;DHT22;48953;53.110;5.592;2022-07-01T15:09:50;24.40;99.90
62862;DHT22;48953;53.110;5.592;2022-07-01T15:12:16;24.70;99.90
62862;DHT22;48953;53.110;5.592;2022-07-01T15:14:44;24.70;99.90
62862;DHT22;48953;53.110;5.592;2022-07-01T15:17:10;24.10;99.90
62862;DHT22;48953;53.110;5.592;2022-07-01T15:19:36;23.70;99.90
62862;DHT22;48953;53.110;5.592;2022-07-01T15:22:04;23.50;99.90
62862;DHT22;48953;53.110;5.592;2022-07-01T15:24:30;23.70;99.90
62862;DHT22;48953;53.110;5.592;2022-07-01T15:26:55;24.00;99.90
62862;DHT22;48953;53.110;5.592;2022-07-01T15:29:21;23.90;99.90
62862;DHT22;48953;53.110;5.592;2022-07-01T15:31:47;23.80;99.90
62862;DHT22;48953;53.110;5.592;2022-07-01T15:34:13;23.70;99.90
62862;DHT22;48953;53.110;5.592;2022-07-01T15:36:41;23.00;99.90
62862;DHT22;48953;53.110;5.592;2022-07-01T15:39:07;23.40;99.90
62862;DHT22;48953;53.110;5.592;2022-07-01T15:41:33;24.10;99.90
62862;DHT22;48953;53.110;5.592;2022-07-01T15:43:59;24.20;99.90
62862;DHT22;48953;53.110;5.592;2022-07-01T15:46:25;24.10;99.90
62862;DHT22;48953;53.110;5.592;2022-07-01T15:48:50;24.10;99.90
62862;DHT22;48953;53.110;5.592;2022-07-01T15:51:16;24.10;99.90